KORC

Orange City Municipal Airport

Orange City, Iowa, USA
METAR KORC 162155Z AUTO 30008KT 10SM CLR 03/01 A3024 RMK AO2
Observed Flight Rules
Dec-16 @ 21:55 UTC (9 minutes ago) Visual Flight Rules
Wind Visibility Clouds
300° at 8 knots 10 miles
  • Clear skies
Temperatures Readings
Current 3°C / 37°F
Dewpoint 1°C / 34°F
Humidity 87%
Altimeter 30.24" Hg
Pressure 1024 hPa
Elevation 431
METAR KORC 162155Z AUTO 30008KT 10SM CLR 03/01 A3024 RMK AO2
Observed Flight Rules
Dec-16 @ 21:55 UTC
(9 minutes ago)
VFR
Wind Visibility
300° at 8 knots 10 miles
Clouds
  • Clear skies
Temperature Dewpoint
3°C / 37°F 1°C / 34°F
Humidity Altimeter Pressure
87% 30.24" Hg 1024 hPa